NCAR-RAP Real-Time Weather Data

Output produced by METARs form (10 April 2020  07:07 UTC)
found at http://weather.rap.ucar.edu/surface/
 
KALS 100652Z AUTO 12009KT 10SM BKN100 05/M03 A3008 RMK AO2 SLP118 T00501028 402221017
KALS 100552Z AUTO 12007KT 10SM OVC090 07/M03 A3008 RMK AO2 SLP112 T00721028 10194 20072 50003
KALS 100452Z AUTO 12010KT 10SM SCT090 08/M03 A3008 RMK AO2 SLP119 T00781033
KALS 100352Z AUTO 11006KT 10SM SCT095 BKN120 10/M03 A3008 RMK AO2 SLP124 T01001033
KALS 100252Z AUTO 11013KT 10SM BKN095 11/M03 A3006 RMK AO2 SLP125 T01061028 53018
KALS 100152Z AUTO 12009G23KT 10SM OVC100 13/M03 A3003 RMK AO2 PK WND 21032/0059 WSHFT 0127 SLP122 T01281033
KALS 100147Z AUTO 13015G23KT 10SM OVC100 14/M04 A3002 RMK AO2 PK WND 21032/0059 WSHFT 0127
KALS 100052Z AUTO 21019G28KT 10SM FEW055 FEW080 OVC095 17/M08 A3000 RMK AO2 PK WND 21028/0052 SLP105 T01721078
KALS 092352Z AUTO 17010G21KT 10SM OVC100 19/M11 A2999 RMK AO2 WSHFT 2331 SLP095 T01941106 10222 20178 55001
KALS 092252Z AUTO 12015G23KT 10SM BKN110 18/M08 A2998 RMK AO2 SLP096 T01781078
KALS 092152Z AUTO 15010G20KT 10SM BKN110 19/M09 A3000 RMK AO2 SLP092 T01941089
KALS 092052Z AUTO 15007G18KT 10SM BKN110 19/M11 A3002 RMK AO2 SLP106 T01941106 56023
KALS 091952Z AUTO 21014G22KT 10SM SCT100 21/M11 A3005 RMK AO2 SLP110 T02111111
KALS 091852Z AUTO VRB03KT 10SM SCT090 18/M08 A3007 RMK AO2 SLP120 T01831078
KALS 091752Z AUTO VRB03KT 10SM CLR 18/M08 A3010 RMK AO2 SLP130 T01781078 10178 21006 58013
KALS 091652Z AUTO VRB03KT 10SM CLR 15/M09 A3013 RMK AO2 SLP154 T01501089 $
KALS 091552Z AUTO 19004KT 10SM CLR 12/M10 A3014 RMK AO2 SLP148 T01221100 $
KALS 091452Z AUTO 08003KT 10SM CLR 08/M11 A3015 RMK AO2 SLP161 T00781111 50003
KALS 091352Z AUTO 03004KT 10SM CLR 03/M11 A3015 RMK AO2 SLP167 T00281106
KALS 091252Z AUTO 30006KT 10SM CLR 01/M12 A3015 RMK AO2 SLP154 T00061117
KALS 091152Z AUTO 28005KT 10SM CLR 00/M14 A3014 RMK AO2 SLP145 T00001139 10056 21017 58002
KALS 091052Z AUTO 00000KT 10SM CLR 01/M12 A3014 RMK AO2 SLP143 T00061117
KALS 090952Z AUTO 18003KT 10SM CLR 02/M12 A3014 RMK AO2 SLP142 T00221122